createdAt,value
2018-04-29T00:02:13.224Z,11.00
2018-04-29T00:04:41.764Z,10.80
2018-04-29T00:07:09.281Z,10.80
2018-04-29T00:09:36.816Z,10.70
2018-04-29T00:12:05.097Z,10.50
2018-04-29T00:14:32.602Z,10.50
2018-04-29T00:17:00.175Z,10.50
2018-04-29T00:19:27.699Z,10.40
2018-04-29T00:21:55.201Z,10.30
2018-04-29T00:24:23.496Z,10.20
2018-04-29T00:26:51.012Z,10.20
2018-04-29T00:29:18.546Z,10.10
2018-04-29T00:31:46.131Z,10.10
2018-04-29T00:34:21.608Z,10.20
2018-04-29T00:36:49.885Z,10.40
2018-04-29T00:39:17.416Z,10.40
2018-04-29T00:41:45.713Z,10.50
2018-04-29T00:44:13.241Z,10.50
2018-04-29T00:46:40.833Z,10.50
2018-04-29T00:49:09.129Z,10.20
2018-04-29T00:51:48.545Z,10.20
2018-04-29T00:54:16.072Z,10.20
2018-04-29T00:56:43.652Z,10.20
2018-04-29T00:59:11.185Z,10.20
2018-04-29T01:01:38.744Z,10.10
2018-04-29T01:04:06.239Z,10.10
2018-04-29T01:06:34.545Z,10.10
2018-04-29T01:09:02.084Z,10.10
2018-04-29T01:11:29.613Z,9.90
2018-04-29T01:13:57.984Z,9.70
2018-04-29T01:16:25.505Z,9.60
2018-04-29T01:18:53.019Z,9.60
2018-04-29T01:21:21.291Z,9.50
2018-04-29T01:23:49.567Z,9.50
2018-04-29T01:26:17.088Z,9.50
2018-04-29T01:28:44.616Z,9.40
2018-04-29T01:31:12.202Z,9.30
2018-04-29T01:33:40.528Z,9.20
2018-04-29T01:36:08.084Z,9.20
2018-04-29T01:38:35.612Z,9.20
2018-04-29T01:41:03.134Z,9.30
2018-04-29T01:43:30.710Z,9.30
2018-04-29T01:45:58.247Z,9.30
2018-04-29T01:48:26.628Z,9.30
2018-04-29T01:50:54.067Z,9.20
2018-04-29T01:53:21.582Z,9.20
2018-04-29T01:55:49.869Z,9.10
2018-04-29T01:58:18.169Z,9.10
2018-04-29T02:00:45.733Z,9.10
2018-04-29T02:03:14.060Z,9.30
2018-04-29T02:05:41.628Z,9.30
2018-04-29T02:08:09.952Z,9.30
2018-04-29T02:10:37.489Z,9.30
2018-04-29T02:13:05.034Z,9.20
2018-04-29T02:15:32.558Z,9.20
2018-04-29T02:18:00.093Z,9.20
2018-04-29T02:20:27.621Z,9.20
2018-04-29T02:22:55.147Z,9.20
2018-04-29T02:25:22.656Z,9.10
2018-04-29T02:27:50.165Z,9.00
2018-04-29T02:30:17.672Z,8.90
2018-04-29T02:32:45.205Z,8.90
2018-04-29T02:35:12.746Z,8.90
2018-04-29T02:37:40.285Z,9.00
2018-04-29T02:40:07.812Z,8.90
2018-04-29T02:42:35.320Z,8.90
2018-04-29T02:45:02.832Z,8.90
2018-04-29T02:47:31.116Z,8.90
2018-04-29T02:49:58.694Z,8.90
2018-04-29T02:52:26.220Z,8.70
2018-04-29T02:54:53.732Z,8.70
2018-04-29T02:57:21.268Z,8.70
2018-04-29T02:59:48.778Z,8.60
2018-04-29T03:02:17.070Z,8.50
2018-04-29T03:04:45.384Z,8.40
2018-04-29T03:07:12.928Z,8.40
2018-04-29T03:09:41.265Z,8.20
2018-04-29T03:12:08.823Z,8.20
2018-04-29T03:14:36.328Z,8.20
2018-04-29T03:17:03.849Z,8.20
2018-04-29T03:19:31.344Z,8.10
2018-04-29T03:21:58.922Z,8.00
2018-04-29T03:24:26.483Z,8.10
2018-04-29T03:26:53.993Z,8.20
2018-04-29T03:29:21.504Z,8.30
2018-04-29T03:31:49.801Z,8.40
2018-04-29T03:34:17.296Z,8.40
2018-04-29T03:36:44.809Z,8.50
2018-04-29T03:39:13.099Z,8.60
2018-04-29T03:41:40.613Z,8.60
2018-04-29T03:44:08.104Z,8.50
2018-04-29T03:46:35.646Z,8.40
2018-04-29T03:49:03.177Z,8.30
2018-04-29T03:51:30.728Z,8.20
2018-04-29T03:53:58.272Z,8.10
2018-04-29T03:56:25.793Z,8.10
2018-04-29T03:59:05.149Z,8.00
2018-04-29T04:01:51.286Z,8.00
2018-04-29T04:04:12.129Z,8.20
2018-04-29T04:06:39.675Z,8.40
2018-04-29T04:09:07.184Z,8.40
2018-04-29T04:11:34.720Z,8.30
2018-04-29T04:14:02.243Z,8.40
2018-04-29T04:16:29.757Z,8.60
2018-04-29T04:18:57.256Z,8.60
2018-04-29T04:21:24.768Z,8.70
2018-04-29T04:23:53.061Z,8.60
2018-04-29T04:26:21.349Z,8.70
2018-04-29T04:28:48.881Z,8.60
2018-04-29T04:31:16.389Z,8.80
2018-04-29T04:33:43.939Z,8.90
2018-04-29T04:36:11.476Z,9.00
2018-04-29T04:38:39.035Z,9.10
2018-04-29T04:41:06.569Z,9.10
2018-04-29T04:43:34.084Z,9.30
2018-04-29T04:46:01.585Z,9.40
2018-04-29T04:48:29.860Z,9.50
2018-04-29T04:50:57.364Z,9.50
2018-04-29T04:53:24.883Z,9.60
2018-04-29T04:55:52.505Z,9.70
2018-04-29T04:58:20.021Z,9.80
2018-04-29T05:00:47.558Z,9.80
2018-04-29T05:03:15.081Z,9.90
2018-04-29T05:05:42.633Z,10.10
2018-04-29T05:08:10.170Z,10.30
2018-04-29T05:10:37.706Z,10.50
2018-04-29T05:13:05.293Z,10.70
2018-04-29T05:15:32.826Z,10.80
2018-04-29T05:18:00.358Z,11.00
2018-04-29T05:20:27.964Z,11.20
2018-04-29T05:22:55.494Z,11.40
2018-04-29T05:25:23.029Z,11.60
2018-04-29T05:27:50.552Z,11.70
2018-04-29T05:30:18.870Z,11.90
2018-04-29T05:32:46.410Z,11.90
2018-04-29T05:35:14.728Z,12.10
2018-04-29T05:37:42.280Z,12.10
2018-04-29T05:40:10.544Z,12.50
2018-04-29T05:42:38.046Z,12.50
2018-04-29T05:45:06.345Z,12.70
2018-04-29T05:47:33.884Z,12.70
2018-04-29T05:50:02.160Z,13.30
2018-04-29T05:52:29.847Z,13.30
2018-04-29T05:54:58.149Z,13.60
2018-04-29T05:57:26.429Z,13.80
2018-04-29T05:59:54.716Z,13.90
2018-04-29T06:02:22.225Z,13.80
2018-04-29T06:04:49.728Z,14.20
2018-04-29T06:07:17.260Z,14.20
2018-04-29T06:09:44.801Z,14.30
2018-04-29T06:12:13.169Z,14.70
2018-04-29T06:14:42.931Z,15.20
2018-04-29T06:17:10.477Z,15.10
2018-04-29T06:19:37.991Z,15.40
2018-04-29T06:22:05.549Z,15.60
2018-04-29T06:24:33.848Z,16.00
2018-04-29T06:27:01.353Z,15.90
2018-04-29T06:29:29.633Z,16.20
2018-04-29T06:31:57.150Z,16.20
2018-04-29T06:34:24.671Z,16.30
2018-04-29T06:36:52.176Z,16.70
2018-04-29T06:39:19.688Z,17.40
2018-04-29T06:41:47.224Z,17.20
2018-04-29T06:44:14.752Z,17.50
2018-04-29T06:46:44.469Z,17.30
2018-04-29T06:49:11.900Z,17.50
2018-04-29T06:51:40.180Z,16.90
2018-04-29T06:54:07.689Z,16.90
2018-04-29T06:56:35.247Z,16.90
2018-04-29T06:59:02.786Z,16.90
2018-04-29T07:01:30.356Z,17.20
2018-04-29T07:03:58.000Z,17.30
2018-04-29T07:06:27.587Z,18.30
2018-04-29T07:08:55.090Z,19.30
2018-04-29T07:11:22.859Z,20.00
2018-04-29T07:13:53.908Z,20.10
2018-04-29T07:16:21.436Z,20.10
2018-04-29T07:18:49.728Z,20.80
2018-04-29T07:21:18.066Z,21.50
2018-04-29T07:23:46.412Z,22.50
2018-04-29T07:26:14.712Z,22.40
2018-04-29T07:28:43.066Z,22.20
2018-04-29T07:31:10.534Z,22.20
2018-04-29T07:33:38.089Z,22.30
2018-04-29T07:36:05.635Z,22.80
2018-04-29T07:38:33.168Z,22.90
2018-04-29T07:41:01.457Z,23.00
2018-04-29T07:43:28.985Z,23.00
2018-04-29T07:45:56.492Z,22.70
2018-04-29T07:48:24.033Z,22.60
2018-04-29T07:50:52.292Z,22.90
2018-04-29T07:53:19.820Z,22.90
2018-04-29T07:55:47.349Z,23.40
2018-04-29T07:58:14.853Z,24.60
2018-04-29T08:00:42.405Z,24.10
2018-04-29T08:03:10.051Z,25.00
2018-04-29T08:05:37.658Z,26.10
2018-04-29T08:08:05.264Z,25.90
2018-04-29T08:10:33.568Z,25.30
2018-04-29T08:13:01.080Z,25.30
2018-04-29T08:15:28.660Z,26.40
2018-04-29T08:17:57.712Z,27.20
2018-04-29T08:20:26.006Z,26.60
2018-04-29T08:22:53.537Z,26.60
2018-04-29T08:25:21.045Z,26.10
2018-04-29T08:27:49.317Z,27.80
2018-04-29T08:30:17.603Z,29.50
2018-04-29T08:32:46.083Z,29.40
2018-04-29T08:35:14.385Z,28.80
2018-04-29T08:37:43.921Z,29.90
2018-04-29T08:40:11.490Z,30.00
2018-04-29T08:42:43.296Z,27.80
2018-04-29T08:45:10.817Z,27.70
2018-04-29T08:47:39.108Z,28.40
2018-04-29T08:50:06.664Z,28.30
2018-04-29T08:52:34.156Z,28.80
2018-04-29T08:55:02.566Z,28.00
2018-04-29T08:57:29.980Z,28.00
2018-04-29T08:59:57.664Z,27.60
2018-04-29T09:02:25.225Z,28.00
2018-04-29T09:04:53.683Z,27.30
2018-04-29T09:07:21.364Z,27.30
2018-04-29T09:09:49.084Z,28.60
2018-04-29T09:12:16.682Z,29.80
2018-04-29T09:14:44.997Z,28.80
2018-04-29T09:17:12.740Z,28.80
2018-04-29T09:19:40.272Z,29.80
2018-04-29T09:22:07.942Z,30.30
2018-04-29T09:24:35.509Z,32.00
2018-04-29T09:27:06.727Z,32.10
2018-04-29T09:29:34.603Z,32.80
2018-04-29T09:32:03.036Z,32.20
2018-04-29T09:34:30.643Z,32.10
2018-04-29T09:36:58.189Z,32.10
2018-04-29T09:39:25.688Z,32.30
2018-04-29T09:41:53.193Z,33.50
2018-04-29T09:44:21.460Z,35.30
2018-04-29T09:46:49.689Z,35.20
2018-04-29T09:49:17.199Z,35.30
2018-04-29T09:51:44.739Z,35.80
2018-04-29T09:54:12.252Z,32.20
2018-04-29T09:56:39.757Z,33.50
2018-04-29T09:59:08.060Z,31.80
2018-04-29T10:01:35.565Z,31.80
2018-04-29T10:04:03.089Z,32.50
2018-04-29T10:06:31.353Z,32.80
2018-04-29T10:08:58.929Z,32.70
2018-04-29T10:11:26.510Z,30.30
2018-04-29T10:13:54.815Z,31.50
2018-04-29T10:16:22.325Z,31.50
2018-04-29T10:18:49.883Z,32.30
2018-04-29T10:21:17.397Z,32.60
2018-04-29T10:23:44.922Z,30.60
2018-04-29T10:26:12.441Z,30.50
2018-04-29T10:28:39.958Z,29.80
2018-04-29T10:31:07.485Z,31.60
2018-04-29T10:33:34.991Z,33.30
2018-04-29T10:36:02.521Z,34.50
2018-04-29T10:38:47.101Z,34.80
2018-04-29T10:41:14.626Z,33.20
2018-04-29T10:43:42.140Z,35.10
2018-04-29T10:46:09.672Z,34.70
2018-04-29T10:48:37.254Z,32.00
2018-04-29T10:51:04.816Z,32.20
2018-04-29T10:53:32.324Z,34.40
2018-04-29T10:55:59.874Z,34.70
2018-04-29T10:58:27.384Z,34.30
2018-04-29T11:00:55.660Z,31.80
2018-04-29T11:03:23.967Z,31.20
2018-04-29T11:05:55.717Z,31.00
2018-04-29T11:08:23.217Z,30.90
2018-04-29T11:10:50.716Z,33.10
2018-04-29T11:13:18.216Z,33.80
2018-04-29T11:15:45.760Z,33.40
2018-04-29T11:18:13.260Z,33.90
2018-04-29T11:20:42.399Z,32.50
2018-04-29T11:23:09.981Z,32.50
2018-04-29T11:25:38.343Z,30.10
2018-04-29T11:28:12.921Z,30.20
2018-04-29T11:30:40.428Z,30.20
2018-04-29T11:33:07.937Z,30.80
2018-04-29T11:35:39.312Z,30.60
2018-04-29T11:38:07.597Z,31.00
2018-04-29T11:40:35.929Z,30.40
2018-04-29T11:43:03.483Z,30.40
2018-04-29T11:45:30.977Z,31.00
2018-04-29T11:47:58.565Z,30.70
2018-04-29T11:50:26.081Z,31.40
2018-04-29T11:52:53.588Z,31.70
2018-04-29T11:55:21.297Z,31.50
2018-04-29T11:57:48.835Z,31.90
2018-04-29T12:00:16.398Z,32.40
2018-04-29T12:02:43.901Z,33.10
2018-04-29T12:05:11.409Z,34.70
2018-04-29T12:07:38.917Z,35.80
2018-04-29T12:10:06.460Z,34.90
2018-04-29T12:12:33.952Z,34.50
2018-04-29T12:15:01.465Z,34.00
2018-04-29T12:17:29.741Z,34.20
2018-04-29T12:19:57.404Z,34.10
2018-04-29T12:22:24.905Z,33.20
2018-04-29T12:24:52.436Z,34.10
2018-04-29T12:27:19.964Z,32.90
2018-04-29T12:29:48.228Z,32.00
2018-04-29T12:32:15.775Z,32.00
2018-04-29T12:34:43.363Z,33.80
2018-04-29T12:37:10.864Z,33.00
2018-04-29T12:42:13.074Z,34.50
2018-04-29T12:44:41.341Z,32.80
2018-04-29T12:47:08.873Z,32.70
2018-04-29T12:49:36.377Z,30.40
2018-04-29T12:52:03.886Z,31.60
2018-04-29T12:54:35.436Z,32.30
2018-04-29T12:57:02.965Z,33.10
2018-04-29T12:59:30.468Z,34.50
2018-04-29T13:01:58.053Z,33.60
2018-04-29T13:04:26.317Z,31.40
2018-04-29T13:06:53.828Z,31.30
2018-04-29T13:09:21.332Z,31.70
2018-04-29T13:11:48.857Z,32.30
2018-04-29T13:14:16.427Z,32.10
2018-04-29T13:16:43.973Z,34.00
2018-04-29T13:19:11.491Z,31.70
2018-04-29T13:21:39.014Z,33.40
2018-04-29T13:24:06.530Z,33.80
2018-04-29T13:26:34.053Z,33.00
2018-04-29T13:29:01.553Z,32.30
2018-04-29T13:31:29.828Z,31.90
2018-04-29T13:33:58.104Z,30.50
2018-04-29T13:36:25.628Z,30.40
2018-04-29T13:38:53.120Z,30.70
2018-04-29T13:41:20.657Z,30.60
2018-04-29T13:43:48.285Z,29.90
2018-04-29T13:46:15.832Z,29.70
2018-04-29T13:48:43.356Z,29.80
2018-04-29T13:51:11.628Z,31.30
2018-04-29T13:53:39.125Z,31.30
2018-04-29T13:56:06.636Z,30.50
2018-04-29T13:58:34.153Z,31.60
2018-04-29T14:01:01.678Z,33.50
2018-04-29T14:03:29.254Z,31.80
2018-04-29T14:05:56.676Z,30.70
2018-04-29T14:08:24.214Z,30.30
2018-04-29T14:10:51.764Z,28.90
2018-04-29T14:13:19.264Z,28.50
2018-04-29T14:15:46.776Z,28.50
2018-04-29T14:18:14.345Z,29.70
2018-04-29T14:20:41.844Z,30.20
2018-04-29T14:23:09.344Z,31.10
2018-04-29T14:25:36.860Z,29.70
2018-04-29T14:28:04.372Z,29.20
2018-04-29T14:30:31.889Z,29.10
2018-04-29T14:32:59.395Z,28.90
2018-04-29T14:35:26.925Z,28.40
2018-04-29T14:37:54.456Z,27.60
2018-04-29T14:40:21.981Z,27.00
2018-04-29T14:42:49.485Z,26.60
2018-04-29T14:45:17.058Z,26.50
2018-04-29T14:47:44.586Z,26.70
2018-04-29T14:50:12.191Z,26.80
2018-04-29T14:52:39.696Z,26.80
2018-04-29T14:55:07.194Z,26.80
2018-04-29T14:57:34.711Z,27.10
2018-04-29T15:00:02.239Z,26.70
2018-04-29T15:02:29.757Z,26.80
2018-04-29T15:04:57.257Z,26.50
2018-04-29T15:07:24.760Z,26.30
2018-04-29T15:09:52.285Z,26.40
2018-04-29T15:12:19.828Z,26.30
2018-04-29T15:14:47.400Z,26.60
2018-04-29T15:17:15.693Z,26.20
2018-04-29T15:19:51.833Z,26.20
2018-04-29T15:22:19.366Z,25.90
2018-04-29T15:24:46.984Z,25.80
2018-04-29T15:27:14.656Z,26.00
2018-04-29T15:29:42.183Z,26.00
2018-04-29T15:32:09.748Z,26.00
2018-04-29T15:34:37.284Z,26.00
2018-04-29T15:37:04.808Z,26.00
2018-04-29T15:39:32.325Z,26.10
2018-04-29T15:42:00.312Z,26.20
2018-04-29T15:44:27.820Z,26.20
2018-04-29T15:46:55.330Z,25.90
2018-04-29T15:49:22.858Z,25.70
2018-04-29T15:51:50.546Z,25.70
2018-04-29T15:54:18.103Z,25.80
2018-04-29T15:56:45.725Z,25.70
2018-04-29T15:59:13.248Z,25.90
2018-04-29T16:01:40.772Z,25.80
2018-04-29T16:04:08.285Z,25.80
2018-04-29T16:06:35.812Z,25.90
2018-04-29T16:09:03.345Z,25.90
2018-04-29T16:11:31.882Z,25.70
2018-04-29T16:14:00.152Z,25.60
2018-04-29T16:16:28.420Z,25.60
2018-04-29T16:18:56.725Z,25.50
2018-04-29T16:21:25.024Z,25.40
2018-04-29T16:23:52.640Z,25.40
2018-04-29T16:26:20.104Z,25.40
2018-04-29T16:28:47.652Z,25.20
2018-04-29T16:31:15.241Z,25.20
2018-04-29T16:33:42.748Z,25.20
2018-04-29T16:36:10.249Z,25.20
2018-04-29T16:38:37.877Z,25.20
2018-04-29T16:41:05.415Z,25.10
2018-04-29T16:43:36.038Z,25.00
2018-04-29T16:46:05.386Z,25.00
2018-04-29T16:48:39.636Z,25.00
2018-04-29T16:51:07.192Z,24.90
2018-04-29T16:53:36.914Z,24.80
2018-04-29T16:56:04.469Z,24.80
2018-04-29T16:58:31.988Z,24.80
2018-04-29T17:00:59.505Z,24.80
2018-04-29T17:03:28.935Z,24.60
2018-04-29T17:05:57.377Z,24.50
2018-04-29T17:08:25.675Z,24.50
2018-04-29T17:10:53.138Z,24.50
2018-04-29T17:13:21.449Z,24.40
2018-04-29T17:15:56.201Z,24.40
2018-04-29T17:18:24.299Z,24.30
2018-04-29T17:20:52.520Z,24.20
2018-04-29T17:23:20.123Z,24.20
2018-04-29T17:25:48.196Z,24.10
2018-04-29T17:28:16.609Z,24.00
2018-04-29T17:30:45.879Z,24.00
2018-04-29T17:33:18.308Z,23.90
2018-04-29T17:35:46.782Z,23.80
2018-04-29T17:38:15.095Z,23.80
2018-04-29T17:40:42.616Z,23.80
2018-04-29T17:43:10.153Z,23.80
2018-04-29T17:45:37.821Z,23.60
2018-04-29T17:48:05.362Z,23.70
2018-04-29T17:50:45.302Z,23.50
2018-04-29T17:53:12.857Z,23.40
2018-04-29T17:55:46.184Z,23.40
2018-04-29T17:58:15.463Z,23.30
2018-04-29T18:00:44.076Z,23.30
2018-04-29T18:03:13.361Z,22.90
2018-04-29T18:05:42.816Z,22.90
2018-04-29T18:08:10.456Z,22.80
2018-04-29T18:10:43.457Z,22.70
2018-04-29T18:13:11.011Z,22.70
2018-04-29T18:15:38.553Z,22.50
2018-04-29T18:18:06.828Z,22.20
2018-04-29T18:20:34.333Z,22.20
2018-04-29T18:23:15.226Z,22.00
2018-04-29T18:25:42.726Z,21.80
2018-04-29T18:28:26.772Z,21.70
2018-04-29T18:30:54.284Z,21.50
2018-04-29T18:33:21.851Z,21.30
2018-04-29T18:35:49.546Z,21.10
2018-04-29T18:38:17.852Z,21.00
2018-04-29T18:40:45.356Z,21.00
2018-04-29T18:43:12.872Z,21.10
2018-04-29T18:45:47.754Z,21.10
2018-04-29T18:48:15.292Z,21.10
2018-04-29T18:50:42.910Z,21.10
2018-04-29T18:53:11.324Z,21.10
2018-04-29T18:55:43.911Z,20.90
2018-04-29T18:58:11.429Z,20.90
2018-04-29T19:00:39.941Z,20.90
2018-04-29T19:03:07.512Z,21.00
2018-04-29T19:05:52.980Z,21.00
2018-04-29T19:08:21.492Z,20.70
2018-04-29T19:10:49.094Z,20.70
2018-04-29T19:13:16.854Z,20.80
2018-04-29T19:15:44.433Z,20.70
2018-04-29T19:18:12.006Z,20.70
2018-04-29T19:20:39.560Z,20.70
2018-04-29T19:23:07.117Z,20.80
2018-04-29T19:25:35.381Z,20.80
2018-04-29T19:28:08.573Z,20.80
2018-04-29T19:30:36.097Z,20.80
2018-04-29T19:33:03.635Z,20.60
2018-04-29T19:35:31.147Z,20.50
2018-04-29T19:37:58.671Z,20.30
2018-04-29T19:40:26.190Z,20.30
2018-04-29T19:42:53.711Z,20.20
2018-04-29T19:45:21.217Z,20.10
2018-04-29T19:47:49.511Z,20.00
2018-04-29T19:50:17.053Z,19.90
2018-04-29T19:52:44.644Z,19.90
2018-04-29T19:55:12.189Z,19.80
2018-04-29T19:57:39.806Z,19.70
2018-04-29T20:00:07.389Z,19.70
2018-04-29T20:02:34.952Z,19.60
2018-04-29T20:05:04.667Z,19.70
2018-04-29T20:07:32.204Z,19.50
2018-04-29T20:09:59.708Z,19.50
2018-04-29T20:12:28.321Z,19.60
2018-04-29T20:14:55.837Z,19.50
2018-04-29T20:17:23.385Z,19.50
2018-04-29T20:19:50.926Z,19.40
2018-04-29T20:22:40.381Z,19.40
2018-04-29T20:25:07.981Z,19.40
2018-04-29T20:27:35.612Z,19.40
2018-04-29T20:30:04.848Z,19.50
2018-04-29T20:32:54.037Z,19.40
2018-04-29T20:35:22.357Z,19.50
2018-04-29T20:37:50.046Z,19.50
2018-04-29T20:40:17.713Z,19.40
2018-04-29T20:42:45.382Z,19.30
2018-04-29T20:45:12.948Z,19.10
2018-04-29T20:47:40.429Z,18.90
2018-04-29T20:50:08.024Z,18.90
2018-04-29T20:52:35.552Z,18.90
2018-04-29T20:55:03.133Z,19.00
2018-04-29T20:57:30.669Z,18.90
2018-04-29T20:59:58.944Z,19.10
2018-04-29T21:02:26.464Z,19.10
2018-04-29T21:04:54.072Z,19.10
2018-04-29T21:07:21.637Z,19.10
2018-04-29T21:09:49.264Z,18.90
2018-04-29T21:12:16.892Z,18.80
2018-04-29T21:14:44.470Z,18.70
2018-04-29T21:17:11.992Z,18.60
2018-04-29T21:19:39.488Z,18.60
2018-04-29T21:22:07.004Z,18.60
2018-04-29T21:24:35.314Z,18.50
2018-04-29T21:27:02.889Z,18.50
2018-04-29T21:29:30.398Z,18.50
2018-04-29T21:31:57.969Z,18.40
2018-04-29T21:34:25.541Z,18.50
2018-04-29T21:36:53.043Z,18.50
2018-04-29T21:39:20.581Z,18.40
2018-04-29T21:41:48.149Z,18.40
2018-04-29T21:44:15.921Z,18.40
2018-04-29T21:46:43.435Z,18.40
2018-04-29T21:49:11.708Z,18.60
2018-04-29T21:51:39.348Z,18.60
2018-04-29T21:54:06.901Z,18.60
2018-04-29T21:56:34.424Z,18.60
2018-04-29T21:59:01.956Z,18.50
2018-04-29T22:05:16.821Z,18.70
2018-04-29T22:07:45.097Z,18.60
2018-04-29T22:10:14.101Z,18.70
2018-04-29T22:12:42.366Z,18.80
2018-04-29T22:15:10.655Z,18.90
2018-04-29T22:17:38.160Z,18.80
2018-04-29T22:20:05.680Z,19.00
2018-04-29T22:22:33.937Z,19.10
2018-04-29T22:25:01.435Z,19.00
2018-04-29T22:27:28.942Z,19.10
2018-04-29T22:29:56.437Z,19.10
2018-04-29T22:32:23.926Z,19.00
2018-04-29T22:34:51.430Z,19.10
2018-04-29T22:37:18.929Z,19.10
2018-04-29T22:39:46.413Z,19.00
2018-04-29T22:42:13.945Z,19.30
2018-04-29T22:44:41.455Z,19.40
2018-04-29T22:47:08.934Z,19.50
2018-04-29T22:49:37.195Z,19.30
2018-04-29T22:52:04.681Z,19.30
2018-04-29T22:54:32.173Z,19.30
2018-04-29T22:56:59.661Z,19.20
2018-04-29T22:59:27.154Z,19.20
2018-04-29T23:01:55.405Z,19.10
2018-04-29T23:04:22.894Z,19.00
2018-04-29T23:06:50.381Z,19.10
2018-04-29T23:09:17.869Z,19.20
2018-04-29T23:11:45.362Z,19.20
2018-04-29T23:14:13.625Z,19.30
2018-04-29T23:16:41.878Z,19.40
2018-04-29T23:19:22.955Z,19.30
2018-04-29T23:21:50.456Z,19.30
2018-04-29T23:24:17.952Z,19.40
2018-04-29T23:26:45.452Z,19.40
2018-04-29T23:29:13.723Z,19.40
2018-04-29T23:31:41.206Z,19.30
2018-04-29T23:34:08.705Z,19.30
2018-04-29T23:36:36.200Z,19.30
2018-04-29T23:39:04.476Z,19.20
2018-04-29T23:41:32.748Z,19.10
2018-04-29T23:44:00.241Z,19.10
2018-04-29T23:46:27.734Z,19.10
2018-04-29T23:48:55.232Z,18.90
2018-04-29T23:51:22.699Z,18.70
2018-04-29T23:53:50.182Z,18.80
2018-04-29T23:56:18.419Z,18.90
2018-04-29T23:58:45.900Z,19.00
